Mutual, Oklahoma
Current Conditions -  °F | °C
As of 3:15 PM on Sunday 23 Nov 2014 (Local Time) from KWWR Reporting Station
Light Rain Light Rain  
Wind Chill:   Ceiling: 3400
Heat Index:   Visibility: 10mi
Dew Point:   Wind: 25mph
Humidity: 81%   Direction: 340°NNW
Pressure: 29.62"   Gusts: 32mph
Location:  36.23°N, 99.17°W
Report Text: KWWR 232115Z AUTO 34022G28KT 10SM -RA SCT023 BKN034 OVC043 06/03 A2962 RMK AO2
Loading
Personal Weather Stations






























Interactive Weather Map New forecast layout! Learn more

10-Day Weather Forecast

Advertisements
Track Severe Weather on mobile